createdAt,value
2023-05-06T00:02:22.547Z,1.90
2023-05-06T00:04:52.331Z,1.98
2023-05-06T00:07:20.842Z,2.58
2023-05-06T00:09:49.790Z,1.70
2023-05-06T00:12:18.677Z,1.80
2023-05-06T00:14:47.314Z,1.60
2023-05-06T00:17:17.851Z,1.33
2023-05-06T00:19:46.278Z,1.40
2023-05-06T00:22:16.443Z,1.98
2023-05-06T00:24:47.797Z,1.50
2023-05-06T00:27:18.548Z,1.80
2023-05-06T00:29:47.532Z,1.48
2023-05-06T00:32:19.661Z,1.55
2023-05-06T00:34:50.693Z,1.52
2023-05-06T00:37:19.282Z,1.40
2023-05-06T00:39:48.964Z,1.60
2023-05-06T00:42:18.616Z,1.60
2023-05-06T00:44:49.277Z,1.80
2023-05-06T00:47:20.578Z,1.88
2023-05-06T00:49:51.675Z,1.90
2023-05-06T00:52:21.379Z,1.92
2023-05-06T00:54:50.458Z,2.10
2023-05-06T00:57:21.272Z,2.10
2023-05-06T00:59:49.673Z,2.10
2023-05-06T01:02:20.325Z,2.60
2023-05-06T01:04:49.007Z,1.95
2023-05-06T01:07:26.213Z,2.22
2023-05-06T01:10:18.845Z,2.35
2023-05-06T01:12:55.850Z,3.28
2023-05-06T01:15:35.183Z,4.53
2023-05-06T01:18:10.936Z,4.60
2023-05-06T01:20:42.053Z,5.72
2023-05-06T01:23:13.824Z,5.70
2023-05-06T01:25:43.097Z,6.38
2023-05-06T01:28:14.424Z,6.65
2023-05-06T01:30:54.953Z,7.93
2023-05-06T01:33:30.794Z,8.45
2023-05-06T01:36:10.554Z,8.70
2023-05-06T01:38:47.109Z,8.52
2023-05-06T01:41:19.356Z,8.63
2023-05-06T01:43:51.076Z,8.95
2023-05-06T01:46:28.124Z,8.30
2023-05-06T01:48:59.345Z,8.57
2023-05-06T01:51:27.959Z,7.05
2023-05-06T01:53:58.252Z,6.82
2023-05-06T01:56:27.644Z,8.48
2023-05-06T01:58:59.388Z,8.15
2023-05-06T02:01:28.705Z,8.10
2023-05-06T02:03:57.564Z,8.02
2023-05-06T02:06:27.066Z,7.55
2023-05-06T02:08:57.805Z,7.45
2023-05-06T02:11:29.884Z,7.85
2023-05-06T02:14:04.821Z,7.07
2023-05-06T02:16:36.265Z,6.78
2023-05-06T02:19:06.061Z,7.22
2023-05-06T02:21:35.280Z,6.97
2023-05-06T02:24:05.839Z,6.55
2023-05-06T02:26:35.407Z,6.25
2023-05-06T02:29:06.533Z,6.30
2023-05-06T02:31:36.297Z,6.35
2023-05-06T02:34:07.368Z,6.05
2023-05-06T02:36:38.359Z,6.80
2023-05-06T02:39:12.308Z,6.53
2023-05-06T02:41:41.606Z,6.40
2023-05-06T02:44:10.788Z,6.45
2023-05-06T02:46:40.045Z,6.57
2023-05-06T02:49:10.750Z,7.43
2023-05-06T02:51:39.237Z,7.15
2023-05-06T02:54:10.974Z,7.25
2023-05-06T02:56:39.807Z,6.60
2023-05-06T02:59:09.722Z,7.10
2023-05-06T03:01:38.709Z,6.57
2023-05-06T03:04:08.672Z,7.38
2023-05-06T03:06:37.567Z,7.57
2023-05-06T03:09:07.457Z,6.80
2023-05-06T03:11:38.537Z,6.80
2023-05-06T03:14:08.156Z,6.80
2023-05-06T03:16:37.074Z,6.38
2023-05-06T03:19:08.764Z,6.68
2023-05-06T03:21:37.927Z,6.47
2023-05-06T03:24:06.968Z,6.15
2023-05-06T03:26:38.514Z,6.32
2023-05-06T03:29:07.986Z,6.38
2023-05-06T03:31:38.748Z,6.72
2023-05-06T03:34:09.412Z,6.88
2023-05-06T03:36:40.631Z,7.57
2023-05-06T03:39:10.486Z,8.15
2023-05-06T03:41:45.330Z,6.97
2023-05-06T03:44:14.305Z,6.82
2023-05-06T03:46:43.768Z,7.70
2023-05-06T03:49:13.498Z,8.75
2023-05-06T03:51:42.913Z,8.40
2023-05-06T03:54:11.552Z,8.80
2023-05-06T03:56:41.931Z,8.77
2023-05-06T03:59:11.867Z,9.20
2023-05-06T04:01:43.489Z,9.27
2023-05-06T04:04:14.524Z,8.82
2023-05-06T04:06:42.699Z,9.68
2023-05-06T04:09:11.006Z,9.48
2023-05-06T04:11:41.081Z,9.07
2023-05-06T04:14:13.826Z,9.27
2023-05-06T04:16:44.229Z,10.13
2023-05-06T04:19:13.062Z,9.00
2023-05-06T04:21:42.194Z,8.75
2023-05-06T04:24:13.754Z,10.68
2023-05-06T04:26:42.868Z,9.23
2023-05-06T04:29:16.217Z,8.95
2023-05-06T04:31:55.957Z,8.25
2023-05-06T04:34:27.939Z,8.45
2023-05-06T04:37:01.003Z,7.20
2023-05-06T04:39:39.382Z,7.30
2023-05-06T04:42:09.940Z,7.22
2023-05-06T04:44:48.930Z,4.93
2023-05-06T04:47:21.215Z,4.10
2023-05-06T04:49:54.126Z,3.90
2023-05-06T04:52:26.312Z,3.75
2023-05-06T04:54:55.227Z,3.80
2023-05-06T04:57:25.874Z,3.33
2023-05-06T05:00:00.630Z,3.60
2023-05-06T05:02:30.935Z,3.15
2023-05-06T05:05:01.101Z,3.17
2023-05-06T05:07:30.294Z,4.05
2023-05-06T05:10:02.048Z,3.80
2023-05-06T05:12:32.553Z,4.20
2023-05-06T05:15:03.301Z,4.15
2023-05-06T05:17:32.216Z,3.85
2023-05-06T05:20:01.789Z,3.65
2023-05-06T05:22:32.324Z,3.90
2023-05-06T05:25:01.576Z,4.00
2023-05-06T05:27:30.902Z,4.30
2023-05-06T05:30:01.917Z,4.00
2023-05-06T05:32:37.552Z,4.28
2023-05-06T05:35:10.942Z,4.72
2023-05-06T05:37:42.005Z,4.40
2023-05-06T05:40:12.923Z,4.53
2023-05-06T05:42:43.515Z,4.15
2023-05-06T05:45:21.285Z,4.40
2023-05-06T05:47:53.879Z,4.40
2023-05-06T05:50:26.324Z,4.80
2023-05-06T05:52:59.562Z,4.35
2023-05-06T05:55:31.948Z,4.65
2023-05-06T05:58:00.870Z,5.18
2023-05-06T06:00:31.063Z,5.13
2023-05-06T06:03:10.206Z,4.55
2023-05-06T06:05:40.664Z,4.20
2023-05-06T06:08:10.118Z,4.32
2023-05-06T06:10:42.093Z,3.53
2023-05-06T06:13:17.310Z,3.90
2023-05-06T06:15:46.725Z,3.88
2023-05-06T06:18:18.428Z,3.63
2023-05-06T06:20:46.803Z,3.17
2023-05-06T06:23:16.138Z,3.28
2023-05-06T06:25:45.264Z,3.05
2023-05-06T06:28:13.675Z,2.50
2023-05-06T06:30:44.041Z,2.47
2023-05-06T06:33:12.952Z,2.10
2023-05-06T06:35:44.014Z,2.22
2023-05-06T06:38:13.503Z,2.10
2023-05-06T06:40:42.218Z,2.45
2023-05-06T06:43:11.904Z,1.80
2023-05-06T06:46:03.898Z,2.28
2023-05-06T06:48:32.974Z,2.15
2023-05-06T06:51:04.066Z,2.33
2023-05-06T06:53:34.296Z,2.53
2023-05-06T06:56:05.797Z,1.63
2023-05-06T06:58:36.089Z,2.00
2023-05-06T07:01:05.715Z,1.73
2023-05-06T07:03:34.905Z,1.60
2023-05-06T07:06:05.774Z,2.00
2023-05-06T07:08:34.379Z,1.67
2023-05-06T07:11:03.074Z,2.05
2023-05-06T07:13:31.651Z,1.98
2023-05-06T07:16:00.633Z,1.90
2023-05-06T07:18:29.045Z,1.48
2023-05-06T07:20:57.792Z,2.22
2023-05-06T07:23:42.696Z,1.58
2023-05-06T07:26:12.270Z,1.50
2023-05-06T07:28:41.806Z,1.60
2023-05-06T07:31:10.835Z,1.73
2023-05-06T07:33:40.508Z,1.55
2023-05-06T07:36:09.483Z,1.70
2023-05-06T07:38:38.790Z,1.73
2023-05-06T07:41:09.100Z,1.52
2023-05-06T07:43:37.587Z,1.63
2023-05-06T07:46:06.734Z,1.88
2023-05-06T07:48:35.116Z,1.67
2023-05-06T07:51:04.334Z,1.63
2023-05-06T07:53:33.983Z,1.60
2023-05-06T07:56:04.063Z,1.58
2023-05-06T07:58:34.528Z,1.50
2023-05-06T08:01:03.463Z,1.67
2023-05-06T08:03:32.646Z,1.30
2023-05-06T08:06:02.862Z,1.40
2023-05-06T08:08:32.347Z,1.48
2023-05-06T08:11:04.160Z,1.40
2023-05-06T08:13:34.803Z,1.20
2023-05-06T08:16:07.311Z,1.65
2023-05-06T08:18:36.315Z,1.73
2023-05-06T08:21:04.921Z,1.70
2023-05-06T08:23:34.213Z,1.80
2023-05-06T08:26:03.741Z,1.38
2023-05-06T08:28:33.780Z,1.17
2023-05-06T08:31:02.538Z,1.00
2023-05-06T08:33:31.934Z,1.45
2023-05-06T08:36:00.816Z,1.10
2023-05-06T08:38:31.505Z,1.92
2023-05-06T08:41:04.841Z,1.63
2023-05-06T08:43:41.850Z,1.25
2023-05-06T08:46:11.066Z,1.02
2023-05-06T08:48:45.178Z,1.20
2023-05-06T08:51:19.943Z,1.00
2023-05-06T08:53:50.889Z,1.23
2023-05-06T08:56:21.510Z,0.70
2023-05-06T08:58:53.044Z,1.60
2023-05-06T09:01:21.529Z,1.00
2023-05-06T09:03:51.373Z,1.13
2023-05-06T09:06:20.036Z,1.20
2023-05-06T09:08:49.075Z,0.82
2023-05-06T09:11:25.943Z,1.10
2023-05-06T09:14:10.436Z,0.95
2023-05-06T09:19:08.161Z,0.70
2023-05-06T09:21:38.082Z,0.77
2023-05-06T09:24:08.132Z,0.88
2023-05-06T09:26:38.634Z,0.90
2023-05-06T09:29:09.014Z,1.10
2023-05-06T09:31:43.650Z,0.80
2023-05-06T09:34:14.472Z,0.80
2023-05-06T09:36:43.491Z,0.75
2023-05-06T09:39:12.467Z,0.80
2023-05-06T09:41:42.071Z,0.85
2023-05-06T09:44:14.119Z,0.63
2023-05-06T09:46:45.292Z,0.30
2023-05-06T09:49:15.344Z,0.57
2023-05-06T09:51:48.038Z,0.70
2023-05-06T09:54:20.066Z,0.80
2023-05-06T09:56:50.579Z,0.30
2023-05-06T09:59:23.648Z,0.40
2023-05-06T10:01:53.764Z,0.47
2023-05-06T10:04:26.302Z,0.40
2023-05-06T10:06:57.721Z,0.45
2023-05-06T10:09:27.309Z,0.55
2023-05-06T10:11:56.601Z,0.45
2023-05-06T10:14:27.067Z,0.30
2023-05-06T10:16:56.429Z,0.17
2023-05-06T10:19:27.702Z,0.20
2023-05-06T10:22:04.470Z,0.30
2023-05-06T10:24:43.013Z,0.40
2023-05-06T10:27:15.184Z,0.80
2023-05-06T10:29:45.533Z,0.20
2023-05-06T10:32:14.634Z,0.10
2023-05-06T10:34:57.034Z,0.20
2023-05-06T10:37:29.859Z,0.20
2023-05-06T10:40:02.067Z,0.40
2023-05-06T10:42:35.523Z,0.30
2023-05-06T10:48:10.991Z,0.30
2023-05-06T10:50:46.822Z,0.47
2023-05-06T10:53:15.649Z,0.60
2023-05-06T10:55:44.234Z,0.68
2023-05-06T10:58:16.323Z,0.30
2023-05-06T11:00:55.545Z,0.30
2023-05-06T11:03:25.479Z,0.50
2023-05-06T11:05:54.348Z,0.43
2023-05-06T11:08:24.684Z,0.40
2023-05-06T11:10:54.970Z,0.30
2023-05-06T11:13:28.546Z,0.30
2023-05-06T11:18:51.557Z,0.30
2023-05-06T11:21:39.851Z,0.38
2023-05-06T11:24:13.532Z,0.20
2023-05-06T11:26:43.540Z,0.20
2023-05-06T11:29:13.578Z,0.28
2023-05-06T11:31:46.230Z,0.20
2023-05-06T11:34:22.184Z,0.20
2023-05-06T11:36:58.699Z,0.30
2023-05-06T11:39:30.597Z,0.20
2023-05-06T11:42:03.933Z,0.30
2023-05-06T11:44:35.446Z,0.10
2023-05-06T11:47:07.733Z,0.30
2023-05-06T11:49:42.283Z,0.10
2023-05-06T11:52:11.730Z,0.32
2023-05-06T11:54:42.496Z,0.20
2023-05-06T11:57:12.221Z,0.20
2023-05-06T11:59:42.882Z,0.22
2023-05-06T12:02:18.171Z,0.47
2023-05-06T12:04:56.719Z,0.35
2023-05-06T12:07:25.975Z,0.20
2023-05-06T12:09:56.305Z,0.32
2023-05-06T12:12:28.554Z,0.20
2023-05-06T12:14:58.212Z,0.73
2023-05-06T12:17:31.008Z,0.13
2023-05-06T12:20:00.773Z,0.20
2023-05-06T12:22:31.669Z,0.40
2023-05-06T12:25:00.687Z,0.40
2023-05-06T12:27:37.240Z,0.77
2023-05-06T12:30:10.615Z,0.40
2023-05-06T12:32:58.370Z,0.30
2023-05-06T12:35:29.937Z,0.52
2023-05-06T12:37:59.102Z,0.30
2023-05-06T12:40:34.393Z,0.20
2023-05-06T12:43:03.304Z,0.40
2023-05-06T12:45:32.233Z,0.20
2023-05-06T12:48:05.446Z,0.22
2023-05-06T12:50:36.282Z,0.50
2023-05-06T12:53:05.958Z,0.40
2023-05-06T12:55:38.349Z,0.30
2023-05-06T12:58:17.224Z,0.52
2023-05-06T13:00:50.804Z,0.43
2023-05-06T13:03:21.301Z,0.57
2023-05-06T13:05:51.909Z,0.52
2023-05-06T13:08:21.667Z,0.38
2023-05-06T13:10:51.469Z,0.47
2023-05-06T13:13:20.143Z,0.70
2023-05-06T13:15:51.694Z,0.20
2023-05-06T13:18:25.891Z,0.30
2023-05-06T13:20:54.513Z,0.35
2023-05-06T13:23:23.124Z,0.30
2023-05-06T13:26:03.484Z,0.50
2023-05-06T13:28:39.283Z,0.30
2023-05-06T13:31:07.962Z,0.35
2023-05-06T13:33:42.007Z,0.30
2023-05-06T13:36:12.242Z,0.20
2023-05-06T13:38:41.540Z,0.20
2023-05-06T13:41:13.033Z,0.30
2023-05-06T13:43:42.109Z,0.20
2023-05-06T13:46:12.534Z,0.20
2023-05-06T13:48:45.157Z,0.20
2023-05-06T13:51:14.437Z,0.20
2023-05-06T13:53:44.064Z,0.22
2023-05-06T13:56:13.197Z,0.30
2023-05-06T13:58:46.804Z,0.50
2023-05-06T14:01:17.954Z,0.20
2023-05-06T14:03:50.896Z,0.20
2023-05-06T14:06:21.278Z,0.25
2023-05-06T14:08:49.719Z,0.40
2023-05-06T14:11:19.537Z,0.38
2023-05-06T14:13:48.706Z,0.40
2023-05-06T14:16:17.782Z,0.50
2023-05-06T14:18:48.183Z,0.50
2023-05-06T14:21:24.373Z,0.35
2023-05-06T14:23:56.670Z,0.30
2023-05-06T14:26:25.811Z,0.45
2023-05-06T14:28:55.338Z,0.60
2023-05-06T14:31:27.087Z,0.47
2023-05-06T14:33:57.504Z,0.30
2023-05-06T14:36:26.078Z,0.40
2023-05-06T14:38:56.728Z,0.45
2023-05-06T14:41:25.777Z,0.50
2023-05-06T14:43:55.547Z,1.13
2023-05-06T14:46:27.727Z,0.40
2023-05-06T14:49:01.882Z,0.70
2023-05-06T14:51:31.472Z,0.43
2023-05-06T14:54:02.543Z,0.50
2023-05-06T14:56:36.061Z,0.85
2023-05-06T14:59:06.587Z,0.80
2023-05-06T15:01:37.550Z,0.65
2023-05-06T15:04:10.026Z,0.50
2023-05-06T15:06:39.831Z,0.32
2023-05-06T15:09:11.860Z,0.50
2023-05-06T15:11:41.237Z,0.45
2023-05-06T15:14:11.151Z,0.50
2023-05-06T15:16:41.442Z,0.55
2023-05-06T15:19:12.870Z,0.68
2023-05-06T15:21:44.402Z,0.40
2023-05-06T15:24:16.153Z,1.85
2023-05-06T15:26:45.258Z,1.17
2023-05-06T15:29:17.647Z,0.60
2023-05-06T15:31:51.875Z,0.55
2023-05-06T15:34:22.492Z,0.40
2023-05-06T15:36:56.432Z,0.90
2023-05-06T15:39:27.043Z,0.60
2023-05-06T15:42:03.655Z,0.50
2023-05-06T15:44:32.821Z,1.77
2023-05-06T15:47:04.393Z,0.60
2023-05-06T15:49:51.478Z,0.50
2023-05-06T15:52:23.068Z,0.43
2023-05-06T15:54:57.724Z,0.57
2023-05-06T15:57:30.151Z,0.50
2023-05-06T15:59:59.537Z,0.50
2023-05-06T16:02:28.804Z,0.80
2023-05-06T16:05:04.059Z,0.70
2023-05-06T16:07:33.473Z,0.90
2023-05-06T16:10:03.725Z,1.10
2023-05-06T16:12:32.783Z,0.88
2023-05-06T16:15:01.372Z,0.63
2023-05-06T16:17:33.649Z,0.68
2023-05-06T16:20:04.581Z,0.70
2023-05-06T16:22:33.949Z,0.60
2023-05-06T16:25:05.092Z,0.70
2023-05-06T16:27:35.776Z,0.55
2023-05-06T16:30:06.166Z,0.63
2023-05-06T16:32:36.709Z,1.15
2023-05-06T16:35:09.540Z,0.70
2023-05-06T16:37:39.582Z,0.68
2023-05-06T16:40:11.534Z,0.40
2023-05-06T16:42:45.429Z,0.98
2023-05-06T16:45:14.328Z,0.88
2023-05-06T16:47:44.419Z,0.93
2023-05-06T16:50:16.684Z,0.90
2023-05-06T16:52:46.394Z,0.60
2023-05-06T16:55:15.205Z,0.50
2023-05-06T16:57:48.309Z,0.57
2023-05-06T17:00:21.229Z,0.60
2023-05-06T17:02:50.015Z,0.70
2023-05-06T17:05:22.008Z,0.93
2023-05-06T17:07:51.456Z,0.85
2023-05-06T17:10:22.697Z,1.02
2023-05-06T17:12:54.735Z,0.60
2023-05-06T17:15:27.282Z,0.90
2023-05-06T17:17:57.932Z,0.77
2023-05-06T17:20:29.304Z,1.13
2023-05-06T17:23:02.408Z,0.73
2023-05-06T17:25:31.196Z,0.70
2023-05-06T17:28:01.662Z,0.95
2023-05-06T17:30:30.882Z,1.00
2023-05-06T17:33:03.484Z,1.02
2023-05-06T17:35:34.465Z,1.10
2023-05-06T17:38:03.169Z,1.00
2023-05-06T17:40:32.075Z,1.05
2023-05-06T17:43:03.744Z,1.15
2023-05-06T17:45:32.460Z,0.98
2023-05-06T17:48:01.379Z,0.88
2023-05-06T17:50:30.703Z,1.02
2023-05-06T17:53:03.910Z,1.25
2023-05-06T17:55:38.300Z,1.58
2023-05-06T17:58:09.381Z,0.97
2023-05-06T18:00:39.803Z,1.40
2023-05-06T18:03:09.795Z,0.90
2023-05-06T18:05:43.590Z,1.25
2023-05-06T18:08:13.994Z,1.20
2023-05-06T18:10:44.702Z,1.13
2023-05-06T18:13:17.270Z,1.20
2023-05-06T18:15:50.137Z,1.50
2023-05-06T18:18:18.842Z,1.20
2023-05-06T18:20:50.488Z,1.60
2023-05-06T18:23:22.221Z,1.40
2023-05-06T18:25:53.719Z,1.02
2023-05-06T18:28:25.231Z,1.10
2023-05-06T18:30:55.850Z,0.98
2023-05-06T18:33:24.842Z,1.17
2023-05-06T18:35:56.016Z,1.42
2023-05-06T18:38:29.454Z,1.15
2023-05-06T18:41:05.539Z,1.50
2023-05-06T18:43:39.432Z,1.13
2023-05-06T18:46:09.817Z,1.30
2023-05-06T18:48:41.085Z,1.20
2023-05-06T18:54:03.295Z,1.98
2023-05-06T18:56:36.869Z,1.13
2023-05-06T18:59:10.388Z,1.63
2023-05-06T19:01:40.283Z,1.40
2023-05-06T19:04:09.632Z,1.40
2023-05-06T19:06:40.406Z,1.58
2023-05-06T19:09:13.331Z,1.60
2023-05-06T19:11:43.473Z,1.52
2023-05-06T19:14:14.213Z,1.60
2023-05-06T19:16:42.862Z,1.90
2023-05-06T19:19:12.897Z,1.60
2023-05-06T19:21:43.237Z,1.58
2023-05-06T19:24:13.831Z,1.42
2023-05-06T19:26:42.898Z,1.77
2023-05-06T19:29:14.928Z,1.73
2023-05-06T19:31:46.662Z,2.22
2023-05-06T19:34:15.483Z,1.67
2023-05-06T19:36:44.549Z,1.83
2023-05-06T19:39:18.014Z,1.60
2023-05-06T19:41:50.619Z,2.63
2023-05-06T19:44:22.574Z,2.15
2023-05-06T19:46:55.237Z,2.10
2023-05-06T19:49:23.934Z,2.22
2023-05-06T19:51:53.647Z,2.58
2023-05-06T19:54:27.767Z,2.65
2023-05-06T19:56:56.491Z,2.38
2023-05-06T19:59:25.446Z,2.05
2023-05-06T20:01:54.916Z,2.30
2023-05-06T20:04:26.695Z,2.42
2023-05-06T20:06:56.176Z,2.95
2023-05-06T20:09:27.790Z,2.40
2023-05-06T20:11:58.719Z,2.60
2023-05-06T20:14:27.934Z,2.80
2023-05-06T20:16:58.886Z,2.60
2023-05-06T20:19:30.736Z,2.70
2023-05-06T20:22:04.593Z,2.15
2023-05-06T20:24:35.052Z,2.30
2023-05-06T20:27:03.859Z,2.45
2023-05-06T20:29:34.213Z,2.00
2023-05-06T20:32:03.598Z,1.52
2023-05-06T20:34:33.782Z,1.70
2023-05-06T20:37:04.788Z,2.38
2023-05-06T20:39:38.064Z,2.30
2023-05-06T20:42:09.930Z,2.53
2023-05-06T20:44:40.899Z,2.85
2023-05-06T20:47:12.730Z,2.53
2023-05-06T20:49:41.800Z,3.33
2023-05-06T20:52:14.790Z,2.83
2023-05-06T20:54:46.801Z,3.50
2023-05-06T20:57:18.385Z,3.03
2023-05-06T20:59:52.918Z,2.90
2023-05-06T21:02:23.015Z,3.00
2023-05-06T21:04:55.511Z,2.55
2023-05-06T21:07:26.499Z,3.30
2023-05-06T21:09:58.780Z,1.85
2023-05-06T21:12:27.466Z,2.28
2023-05-06T21:14:56.247Z,1.90
2023-05-06T21:17:32.661Z,1.90
2023-05-06T21:20:03.540Z,1.52
2023-05-06T21:22:40.832Z,1.63
2023-05-06T21:25:13.242Z,1.42
2023-05-06T21:27:42.009Z,1.73
2023-05-06T21:30:13.014Z,1.33
2023-05-06T21:32:46.028Z,1.45
2023-05-06T21:35:17.751Z,1.17
2023-05-06T21:37:47.154Z,1.27
2023-05-06T21:40:17.343Z,1.50
2023-05-06T21:42:48.046Z,1.35
2023-05-06T21:45:17.928Z,1.40
2023-05-06T21:47:48.077Z,1.17
2023-05-06T21:50:17.626Z,1.58
2023-05-06T21:52:48.333Z,1.55
2023-05-06T21:55:19.238Z,1.50
2023-05-06T21:57:49.870Z,1.30
2023-05-06T22:00:18.898Z,1.45
2023-05-06T22:02:48.697Z,1.55
2023-05-06T22:05:17.870Z,1.40
2023-05-06T22:07:47.048Z,1.42
2023-05-06T22:10:18.455Z,1.27
2023-05-06T22:12:47.143Z,1.25
2023-05-06T22:15:16.251Z,1.55
2023-05-06T22:17:44.947Z,1.25
2023-05-06T22:20:15.418Z,1.30
2023-05-06T22:22:46.104Z,1.48
2023-05-06T22:25:14.909Z,2.00
2023-05-06T22:27:47.419Z,1.60
2023-05-06T22:30:17.209Z,1.63
2023-05-06T22:32:47.180Z,1.50
2023-05-06T22:35:20.761Z,1.40
2023-05-06T22:37:49.271Z,1.80
2023-05-06T22:40:20.075Z,2.33
2023-05-06T22:42:53.747Z,2.03
2023-05-06T22:45:24.550Z,1.77
2023-05-06T22:47:53.004Z,1.60
2023-05-06T22:50:21.811Z,1.85
2023-05-06T22:52:52.193Z,1.73
2023-05-06T22:55:28.159Z,1.70
2023-05-06T22:58:01.723Z,1.88
2023-05-06T23:00:31.901Z,1.90
2023-05-06T23:03:07.698Z,2.00
2023-05-06T23:05:37.907Z,1.92
2023-05-06T23:08:12.063Z,1.60
2023-05-06T23:10:41.988Z,1.50
2023-05-06T23:13:18.176Z,1.60
2023-05-06T23:15:47.671Z,1.48
2023-05-06T23:18:20.713Z,1.52
2023-05-06T23:20:49.978Z,1.70
2023-05-06T23:23:20.420Z,1.85
2023-05-06T23:25:51.127Z,1.63
2023-05-06T23:28:21.369Z,1.90
2023-05-06T23:30:52.581Z,1.60
2023-05-06T23:33:21.387Z,1.67
2023-05-06T23:35:51.008Z,1.75
2023-05-06T23:38:19.312Z,1.77
2023-05-06T23:40:50.392Z,1.65
2023-05-06T23:43:22.378Z,1.60
2023-05-06T23:45:51.999Z,2.08
2023-05-06T23:48:20.854Z,2.10
2023-05-06T23:50:51.279Z,1.90
2023-05-06T23:53:19.996Z,1.63
2023-05-06T23:55:49.724Z,2.03
2023-05-06T23:58:21.169Z,1.63
